sensor_id;sensor_type;location;lat;lon;timestamp;P1;durP1;ratioP1;P2;durP2;ratioP2
23573;SDS011;11965;53.640;10.050;2023-03-17T00:00:52;4.19;;;4.17;;
23573;SDS011;11965;53.640;10.050;2023-03-17T00:03:19;4.11;;;4.06;;
23573;SDS011;11965;53.640;10.050;2023-03-17T00:05:51;4.44;;;4.42;;
23573;SDS011;11965;53.640;10.050;2023-03-17T00:08:20;4.16;;;4.15;;
23573;SDS011;11965;53.640;10.050;2023-03-17T00:10:49;4.21;;;4.19;;
23573;SDS011;11965;53.640;10.050;2023-03-17T00:13:17;4.13;;;4.10;;
23573;SDS011;11965;53.640;10.050;2023-03-17T00:15:44;4.07;;;4.07;;
23573;SDS011;11965;53.640;10.050;2023-03-17T00:18:15;3.98;;;3.97;;
23573;SDS011;11965;53.640;10.050;2023-03-17T00:20:44;4.33;;;4.30;;
23573;SDS011;11965;53.640;10.050;2023-03-17T00:23:16;4.44;;;4.41;;
23573;SDS011;11965;53.640;10.050;2023-03-17T00:25:45;4.29;;;4.25;;
23573;SDS011;11965;53.640;10.050;2023-03-17T00:28:14;4.35;;;4.31;;
23573;SDS011;11965;53.640;10.050;2023-03-17T00:30:43;4.20;;;4.20;;
23573;SDS011;11965;53.640;10.050;2023-03-17T00:33:11;4.11;;;4.11;;
23573;SDS011;11965;53.640;10.050;2023-03-17T00:35:40;4.32;;;4.32;;
23573;SDS011;11965;53.640;10.050;2023-03-17T00:38:09;4.00;;;3.99;;
23573;SDS011;11965;53.640;10.050;2023-03-17T00:40:43;4.23;;;4.22;;
23573;SDS011;11965;53.640;10.050;2023-03-17T00:43:10;4.25;;;4.23;;
23573;SDS011;11965;53.640;10.050;2023-03-17T00:45:38;4.04;;;4.02;;
23573;SDS011;11965;53.640;10.050;2023-03-17T00:48:09;4.07;;;4.07;;
23573;SDS011;11965;53.640;10.050;2023-03-17T00:50:42;4.35;;;4.35;;
23573;SDS011;11965;53.640;10.050;2023-03-17T00:53:10;4.35;;;4.35;;
23573;SDS011;11965;53.640;10.050;2023-03-17T00:55:41;4.69;;;4.69;;
23573;SDS011;11965;53.640;10.050;2023-03-17T00:58:11;4.53;;;4.52;;
23573;SDS011;11965;53.640;10.050;2023-03-17T01:00:40;4.48;;;4.45;;
23573;SDS011;11965;53.640;10.050;2023-03-17T01:03:08;4.68;;;4.58;;
23573;SDS011;11965;53.640;10.050;2023-03-17T01:05:38;4.32;;;4.23;;
23573;SDS011;11965;53.640;10.050;2023-03-17T01:08:07;4.28;;;4.25;;
23573;SDS011;11965;53.640;10.050;2023-03-17T01:10:39;4.47;;;4.47;;
23573;SDS011;11965;53.640;10.050;2023-03-17T01:13:09;4.43;;;4.42;;
23573;SDS011;11965;53.640;10.050;2023-03-17T01:15:40;4.48;;;4.48;;
23573;SDS011;11965;53.640;10.050;2023-03-17T01:18:11;4.69;;;4.69;;
23573;SDS011;11965;53.640;10.050;2023-03-17T01:20:40;4.48;;;4.45;;
23573;SDS011;11965;53.640;10.050;2023-03-17T01:23:08;4.39;;;4.39;;
23573;SDS011;11965;53.640;10.050;2023-03-17T01:25:36;4.32;;;4.31;;
23573;SDS011;11965;53.640;10.050;2023-03-17T01:28:05;4.26;;;4.26;;
23573;SDS011;11965;53.640;10.050;2023-03-17T01:30:38;4.75;;;4.70;;
23573;SDS011;11965;53.640;10.050;2023-03-17T01:33:07;4.33;;;4.32;;
23573;SDS011;11965;53.640;10.050;2023-03-17T01:35:36;4.53;;;4.53;;
23573;SDS011;11965;53.640;10.050;2023-03-17T01:38:05;4.40;;;4.40;;
23573;SDS011;11965;53.640;10.050;2023-03-17T01:40:34;4.35;;;4.35;;
23573;SDS011;11965;53.640;10.050;2023-03-17T01:43:15;4.50;;;4.50;;
23573;SDS011;11965;53.640;10.050;2023-03-17T01:48:54;4.76;;;4.76;;
23573;SDS011;11965;53.640;10.050;2023-03-17T01:51:29;4.68;;;4.68;;
23573;SDS011;11965;53.640;10.050;2023-03-17T01:54:03;4.54;;;4.52;;
23573;SDS011;11965;53.640;10.050;2023-03-17T01:56:33;4.99;;;4.98;;
23573;SDS011;11965;53.640;10.050;2023-03-17T01:59:04;4.43;;;4.38;;
23573;SDS011;11965;53.640;10.050;2023-03-17T02:01:36;5.28;;;5.21;;
23573;SDS011;11965;53.640;10.050;2023-03-17T02:04:06;4.97;;;4.96;;
23573;SDS011;11965;53.640;10.050;2023-03-17T02:06:34;5.21;;;5.20;;
23573;SDS011;11965;53.640;10.050;2023-03-17T02:09:01;4.80;;;4.79;;
23573;SDS011;11965;53.640;10.050;2023-03-17T02:11:28;4.99;;;4.99;;
23573;SDS011;11965;53.640;10.050;2023-03-17T02:13:56;5.31;;;5.31;;
23573;SDS011;11965;53.640;10.050;2023-03-17T02:16:24;5.11;;;5.11;;
23573;SDS011;11965;53.640;10.050;2023-03-17T02:18:51;5.16;;;5.16;;
23573;SDS011;11965;53.640;10.050;2023-03-17T02:24:14;5.18;;;5.18;;
23573;SDS011;11965;53.640;10.050;2023-03-17T02:26:48;5.20;;;5.20;;
23573;SDS011;11965;53.640;10.050;2023-03-17T02:29:17;5.32;;;5.32;;
23573;SDS011;11965;53.640;10.050;2023-03-17T02:31:45;5.43;;;5.43;;
23573;SDS011;11965;53.640;10.050;2023-03-17T02:34:13;5.36;;;5.36;;
23573;SDS011;11965;53.640;10.050;2023-03-17T02:36:40;5.20;;;5.20;;
23573;SDS011;11965;53.640;10.050;2023-03-17T02:39:09;5.34;;;5.34;;
23573;SDS011;11965;53.640;10.050;2023-03-17T02:41:35;5.26;;;5.26;;
23573;SDS011;11965;53.640;10.050;2023-03-17T02:44:02;5.05;;;5.05;;
23573;SDS011;11965;53.640;10.050;2023-03-17T02:46:29;5.25;;;5.25;;
23573;SDS011;11965;53.640;10.050;2023-03-17T02:48:58;5.46;;;5.46;;
23573;SDS011;11965;53.640;10.050;2023-03-17T02:51:26;5.36;;;5.36;;
23573;SDS011;11965;53.640;10.050;2023-03-17T02:53:53;5.52;;;5.50;;
23573;SDS011;11965;53.640;10.050;2023-03-17T02:56:21;5.81;;;5.74;;
23573;SDS011;11965;53.640;10.050;2023-03-17T02:58:48;5.65;;;5.58;;
23573;SDS011;11965;53.640;10.050;2023-03-17T03:01:15;5.40;;;5.37;;
23573;SDS011;11965;53.640;10.050;2023-03-17T03:03:42;5.78;;;5.67;;
23573;SDS011;11965;53.640;10.050;2023-03-17T03:06:10;6.03;;;6.01;;
23573;SDS011;11965;53.640;10.050;2023-03-17T03:08:37;5.46;;;5.46;;
23573;SDS011;11965;53.640;10.050;2023-03-17T03:11:04;5.25;;;5.25;;
23573;SDS011;11965;53.640;10.050;2023-03-17T03:13:32;5.33;;;5.33;;
23573;SDS011;11965;53.640;10.050;2023-03-17T03:15:59;5.70;;;5.70;;
23573;SDS011;11965;53.640;10.050;2023-03-17T03:18:26;5.47;;;5.47;;
23573;SDS011;11965;53.640;10.050;2023-03-17T03:20:53;5.59;;;5.55;;
23573;SDS011;11965;53.640;10.050;2023-03-17T03:23:20;5.38;;;5.38;;
23573;SDS011;11965;53.640;10.050;2023-03-17T03:25:47;5.61;;;5.61;;
23573;SDS011;11965;53.640;10.050;2023-03-17T03:28:14;5.56;;;5.56;;
23573;SDS011;11965;53.640;10.050;2023-03-17T03:30:43;5.73;;;5.73;;
23573;SDS011;11965;53.640;10.050;2023-03-17T03:33:11;5.57;;;5.57;;
23573;SDS011;11965;53.640;10.050;2023-03-17T03:35:39;5.50;;;5.50;;
23573;SDS011;11965;53.640;10.050;2023-03-17T03:38:07;5.94;;;5.94;;
23573;SDS011;11965;53.640;10.050;2023-03-17T03:40:34;5.80;;;5.80;;
23573;SDS011;11965;53.640;10.050;2023-03-17T03:43:02;5.76;;;5.76;;
23573;SDS011;11965;53.640;10.050;2023-03-17T03:45:30;6.34;;;6.34;;
23573;SDS011;11965;53.640;10.050;2023-03-17T03:47:58;5.74;;;5.74;;
23573;SDS011;11965;53.640;10.050;2023-03-17T03:50:25;6.01;;;6.01;;
23573;SDS011;11965;53.640;10.050;2023-03-17T03:52:52;6.01;;;6.01;;
23573;SDS011;11965;53.640;10.050;2023-03-17T03:55:19;5.93;;;5.93;;
23573;SDS011;11965;53.640;10.050;2023-03-17T03:57:46;6.06;;;6.06;;
23573;SDS011;11965;53.640;10.050;2023-03-17T04:00:13;5.96;;;5.96;;
23573;SDS011;11965;53.640;10.050;2023-03-17T04:02:40;5.62;;;5.62;;
23573;SDS011;11965;53.640;10.050;2023-03-17T04:05:10;6.11;;;6.04;;
23573;SDS011;11965;53.640;10.050;2023-03-17T04:07:38;6.35;;;6.25;;
23573;SDS011;11965;53.640;10.050;2023-03-17T04:10:05;6.17;;;6.10;;
23573;SDS011;11965;53.640;10.050;2023-03-17T04:12:33;6.35;;;6.32;;
23573;SDS011;11965;53.640;10.050;2023-03-17T04:14:59;6.07;;;6.07;;
23573;SDS011;11965;53.640;10.050;2023-03-17T04:17:27;6.60;;;6.50;;
23573;SDS011;11965;53.640;10.050;2023-03-17T04:19:57;6.39;;;6.39;;
23573;SDS011;11965;53.640;10.050;2023-03-17T04:22:25;6.63;;;6.63;;
23573;SDS011;11965;53.640;10.050;2023-03-17T04:24:52;6.43;;;6.42;;
23573;SDS011;11965;53.640;10.050;2023-03-17T04:27:19;6.16;;;6.16;;
23573;SDS011;11965;53.640;10.050;2023-03-17T04:29:46;6.92;;;6.85;;
23573;SDS011;11965;53.640;10.050;2023-03-17T04:32:13;6.54;;;6.53;;
23573;SDS011;11965;53.640;10.050;2023-03-17T04:34:40;6.87;;;6.87;;
23573;SDS011;11965;53.640;10.050;2023-03-17T04:37:08;6.38;;;6.38;;
23573;SDS011;11965;53.640;10.050;2023-03-17T04:39:37;6.88;;;6.88;;
23573;SDS011;11965;53.640;10.050;2023-03-17T04:42:07;6.71;;;6.64;;
23573;SDS011;11965;53.640;10.050;2023-03-17T04:44:34;6.76;;;6.66;;
23573;SDS011;11965;53.640;10.050;2023-03-17T04:47:01;6.68;;;6.68;;
23573;SDS011;11965;53.640;10.050;2023-03-17T04:49:28;6.80;;;6.79;;
23573;SDS011;11965;53.640;10.050;2023-03-17T04:51:55;6.90;;;6.85;;
23573;SDS011;11965;53.640;10.050;2023-03-17T04:54:22;6.87;;;6.82;;
23573;SDS011;11965;53.640;10.050;2023-03-17T04:56:53;6.66;;;6.66;;
23573;SDS011;11965;53.640;10.050;2023-03-17T04:59:20;6.73;;;6.73;;
23573;SDS011;11965;53.640;10.050;2023-03-17T05:01:47;6.97;;;6.97;;
23573;SDS011;11965;53.640;10.050;2023-03-17T05:04:14;6.77;;;6.77;;
23573;SDS011;11965;53.640;10.050;2023-03-17T05:06:41;6.98;;;6.96;;
23573;SDS011;11965;53.640;10.050;2023-03-17T05:09:08;6.79;;;6.78;;
23573;SDS011;11965;53.640;10.050;2023-03-17T05:11:35;6.78;;;6.78;;
23573;SDS011;11965;53.640;10.050;2023-03-17T05:14:03;7.00;;;6.95;;
23573;SDS011;11965;53.640;10.050;2023-03-17T05:16:30;6.41;;;6.41;;
23573;SDS011;11965;53.640;10.050;2023-03-17T05:18:57;7.30;;;7.30;;
23573;SDS011;11965;53.640;10.050;2023-03-17T05:21:24;6.90;;;6.89;;
23573;SDS011;11965;53.640;10.050;2023-03-17T05:23:51;6.86;;;6.86;;
23573;SDS011;11965;53.640;10.050;2023-03-17T05:26:18;7.31;;;7.31;;
23573;SDS011;11965;53.640;10.050;2023-03-17T05:28:45;7.49;;;7.49;;
23573;SDS011;11965;53.640;10.050;2023-03-17T05:31:14;7.28;;;7.28;;
23573;SDS011;11965;53.640;10.050;2023-03-17T05:33:40;7.16;;;7.16;;
23573;SDS011;11965;53.640;10.050;2023-03-17T05:36:07;7.37;;;7.37;;
23573;SDS011;11965;53.640;10.050;2023-03-17T05:38:34;7.28;;;7.27;;
23573;SDS011;11965;53.640;10.050;2023-03-17T05:41:01;7.12;;;7.12;;
23573;SDS011;11965;53.640;10.050;2023-03-17T05:43:28;7.39;;;7.39;;
23573;SDS011;11965;53.640;10.050;2023-03-17T05:45:55;7.86;;;7.86;;
23573;SDS011;11965;53.640;10.050;2023-03-17T05:48:23;8.16;;;8.16;;
23573;SDS011;11965;53.640;10.050;2023-03-17T05:50:50;8.04;;;8.00;;
23573;SDS011;11965;53.640;10.050;2023-03-17T05:53:17;7.58;;;7.57;;
23573;SDS011;11965;53.640;10.050;2023-03-17T05:55:44;7.72;;;7.72;;
23573;SDS011;11965;53.640;10.050;2023-03-17T05:58:11;7.65;;;7.65;;
23573;SDS011;11965;53.640;10.050;2023-03-17T06:00:40;7.92;;;7.92;;
23573;SDS011;11965;53.640;10.050;2023-03-17T06:03:06;7.70;;;7.70;;
23573;SDS011;11965;53.640;10.050;2023-03-17T06:05:35;7.94;;;7.88;;
23573;SDS011;11965;53.640;10.050;2023-03-17T06:08:02;7.91;;;7.91;;
23573;SDS011;11965;53.640;10.050;2023-03-17T06:10:30;8.11;;;8.11;;
23573;SDS011;11965;53.640;10.050;2023-03-17T06:12:57;8.27;;;8.27;;
23573;SDS011;11965;53.640;10.050;2023-03-17T06:15:27;8.23;;;8.22;;
23573;SDS011;11965;53.640;10.050;2023-03-17T06:17:54;8.87;;;8.87;;
23573;SDS011;11965;53.640;10.050;2023-03-17T06:20:20;8.26;;;8.24;;
23573;SDS011;11965;53.640;10.050;2023-03-17T06:22:49;8.57;;;8.57;;
23573;SDS011;11965;53.640;10.050;2023-03-17T06:25:16;8.33;;;8.33;;
23573;SDS011;11965;53.640;10.050;2023-03-17T06:27:43;8.10;;;8.10;;
23573;SDS011;11965;53.640;10.050;2023-03-17T06:30:10;8.36;;;8.36;;
23573;SDS011;11965;53.640;10.050;2023-03-17T06:32:37;8.27;;;8.27;;
23573;SDS011;11965;53.640;10.050;2023-03-17T06:35:05;8.77;;;8.77;;
23573;SDS011;11965;53.640;10.050;2023-03-17T06:37:32;8.34;;;8.31;;
23573;SDS011;11965;53.640;10.050;2023-03-17T06:40:00;8.23;;;8.22;;
23573;SDS011;11965;53.640;10.050;2023-03-17T06:42:28;8.35;;;8.35;;
23573;SDS011;11965;53.640;10.050;2023-03-17T06:44:55;8.95;;;8.95;;
23573;SDS011;11965;53.640;10.050;2023-03-17T06:47:22;8.22;;;8.22;;
23573;SDS011;11965;53.640;10.050;2023-03-17T06:49:50;8.39;;;8.35;;
23573;SDS011;11965;53.640;10.050;2023-03-17T06:52:17;8.67;;;8.57;;
23573;SDS011;11965;53.640;10.050;2023-03-17T06:54:44;8.18;;;8.18;;
23573;SDS011;11965;53.640;10.050;2023-03-17T06:57:12;8.98;;;8.87;;
23573;SDS011;11965;53.640;10.050;2023-03-17T06:59:40;8.93;;;8.93;;
23573;SDS011;11965;53.640;10.050;2023-03-17T07:02:08;8.80;;;8.80;;
23573;SDS011;11965;53.640;10.050;2023-03-17T07:04:35;8.81;;;8.78;;
23573;SDS011;11965;53.640;10.050;2023-03-17T07:07:02;8.76;;;8.62;;
23573;SDS011;11965;53.640;10.050;2023-03-17T07:09:30;9.08;;;9.01;;
23573;SDS011;11965;53.640;10.050;2023-03-17T07:11:58;8.45;;;8.30;;
23573;SDS011;11965;53.640;10.050;2023-03-17T07:14:31;8.75;;;8.62;;
23573;SDS011;11965;53.640;10.050;2023-03-17T07:16:59;8.73;;;8.73;;
23573;SDS011;11965;53.640;10.050;2023-03-17T07:19:27;8.91;;;8.91;;
23573;SDS011;11965;53.640;10.050;2023-03-17T07:21:56;8.45;;;8.45;;
23573;SDS011;11965;53.640;10.050;2023-03-17T07:24:23;8.35;;;8.35;;
23573;SDS011;11965;53.640;10.050;2023-03-17T07:26:51;8.55;;;8.55;;
23573;SDS011;11965;53.640;10.050;2023-03-17T07:29:18;8.45;;;8.45;;
23573;SDS011;11965;53.640;10.050;2023-03-17T07:31:46;8.66;;;8.66;;
23573;SDS011;11965;53.640;10.050;2023-03-17T07:34:14;8.72;;;8.71;;
23573;SDS011;11965;53.640;10.050;2023-03-17T07:36:42;8.59;;;8.57;;
23573;SDS011;11965;53.640;10.050;2023-03-17T07:39:08;8.51;;;8.46;;
23573;SDS011;11965;53.640;10.050;2023-03-17T07:41:36;8.62;;;8.62;;
23573;SDS011;11965;53.640;10.050;2023-03-17T07:44:07;8.65;;;8.65;;
23573;SDS011;11965;53.640;10.050;2023-03-17T07:46:35;8.64;;;8.64;;
23573;SDS011;11965;53.640;10.050;2023-03-17T07:49:04;8.81;;;8.81;;
23573;SDS011;11965;53.640;10.050;2023-03-17T07:51:32;8.94;;;8.89;;
23573;SDS011;11965;53.640;10.050;2023-03-17T07:53:59;8.53;;;8.52;;
23573;SDS011;11965;53.640;10.050;2023-03-17T07:56:29;8.10;;;8.10;;
23573;SDS011;11965;53.640;10.050;2023-03-17T07:58:56;8.34;;;8.25;;
23573;SDS011;11965;53.640;10.050;2023-03-17T08:01:24;8.66;;;8.47;;
23573;SDS011;11965;53.640;10.050;2023-03-17T08:03:52;8.56;;;8.50;;
23573;SDS011;11965;53.640;10.050;2023-03-17T08:06:22;8.50;;;8.50;;
23573;SDS011;11965;53.640;10.050;2023-03-17T08:08:50;8.42;;;8.42;;
23573;SDS011;11965;53.640;10.050;2023-03-17T08:11:18;8.01;;;7.98;;
23573;SDS011;11965;53.640;10.050;2023-03-17T08:13:46;8.49;;;8.49;;
23573;SDS011;11965;53.640;10.050;2023-03-17T08:16:14;8.04;;;8.03;;
23573;SDS011;11965;53.640;10.050;2023-03-17T08:18:41;8.23;;;8.23;;
23573;SDS011;11965;53.640;10.050;2023-03-17T08:21:08;8.32;;;8.32;;
23573;SDS011;11965;53.640;10.050;2023-03-17T08:23:36;8.17;;;8.17;;
23573;SDS011;11965;53.640;10.050;2023-03-17T08:26:03;8.06;;;8.06;;
23573;SDS011;11965;53.640;10.050;2023-03-17T08:28:30;8.26;;;8.26;;
23573;SDS011;11965;53.640;10.050;2023-03-17T08:31:05;8.50;;;8.45;;
23573;SDS011;11965;53.640;10.050;2023-03-17T08:33:37;8.04;;;8.03;;
23573;SDS011;11965;53.640;10.050;2023-03-17T08:36:05;7.97;;;7.97;;
23573;SDS011;11965;53.640;10.050;2023-03-17T08:38:34;7.89;;;7.85;;
23573;SDS011;11965;53.640;10.050;2023-03-17T08:41:03;8.03;;;8.01;;
23573;SDS011;11965;53.640;10.050;2023-03-17T08:43:33;7.88;;;7.88;;
23573;SDS011;11965;53.640;10.050;2023-03-17T08:46:03;7.66;;;7.66;;
23573;SDS011;11965;53.640;10.050;2023-03-17T08:48:32;7.66;;;7.66;;
23573;SDS011;11965;53.640;10.050;2023-03-17T08:51:00;7.70;;;7.70;;
23573;SDS011;11965;53.640;10.050;2023-03-17T08:53:27;7.72;;;7.71;;
23573;SDS011;11965;53.640;10.050;2023-03-17T08:55:56;8.18;;;8.01;;
23573;SDS011;11965;53.640;10.050;2023-03-17T08:58:23;8.01;;;8.01;;
23573;SDS011;11965;53.640;10.050;2023-03-17T09:00:50;7.71;;;7.71;;
23573;SDS011;11965;53.640;10.050;2023-03-17T09:03:18;7.47;;;7.47;;
23573;SDS011;11965;53.640;10.050;2023-03-17T09:05:46;7.61;;;7.61;;
23573;SDS011;11965;53.640;10.050;2023-03-17T09:08:15;7.36;;;7.32;;
23573;SDS011;11965;53.640;10.050;2023-03-17T09:10:42;7.60;;;7.52;;
23573;SDS011;11965;53.640;10.050;2023-03-17T09:13:11;7.38;;;7.35;;
23573;SDS011;11965;53.640;10.050;2023-03-17T09:15:38;7.57;;;7.45;;
23573;SDS011;11965;53.640;10.050;2023-03-17T09:18:06;7.48;;;7.38;;
23573;SDS011;11965;53.640;10.050;2023-03-17T09:20:34;7.46;;;7.41;;
23573;SDS011;11965;53.640;10.050;2023-03-17T09:23:04;7.01;;;7.01;;
23573;SDS011;11965;53.640;10.050;2023-03-17T09:25:33;6.85;;;6.85;;
23573;SDS011;11965;53.640;10.050;2023-03-17T09:28:00;6.82;;;6.82;;
23573;SDS011;11965;53.640;10.050;2023-03-17T09:30:29;7.09;;;7.00;;
23573;SDS011;11965;53.640;10.050;2023-03-17T09:32:57;7.31;;;7.17;;
23573;SDS011;11965;53.640;10.050;2023-03-17T09:35:24;6.78;;;6.67;;
23573;SDS011;11965;53.640;10.050;2023-03-17T09:37:53;6.61;;;6.61;;
23573;SDS011;11965;53.640;10.050;2023-03-17T09:40:21;6.62;;;6.62;;
23573;SDS011;11965;53.640;10.050;2023-03-17T09:42:59;6.42;;;6.42;;
23573;SDS011;11965;53.640;10.050;2023-03-17T09:45:39;6.37;;;6.33;;
23573;SDS011;11965;53.640;10.050;2023-03-17T09:48:11;6.28;;;6.21;;
23573;SDS011;11965;53.640;10.050;2023-03-17T09:50:50;6.27;;;6.24;;
23573;SDS011;11965;53.640;10.050;2023-03-17T09:53:22;6.61;;;6.59;;
23573;SDS011;11965;53.640;10.050;2023-03-17T09:55:54;6.55;;;6.53;;
23573;SDS011;11965;53.640;10.050;2023-03-17T09:58:25;6.49;;;6.37;;
23573;SDS011;11965;53.640;10.050;2023-03-17T10:00:58;5.91;;;5.87;;
23573;SDS011;11965;53.640;10.050;2023-03-17T10:03:27;6.05;;;6.05;;
23573;SDS011;11965;53.640;10.050;2023-03-17T10:05:57;6.15;;;6.15;;
23573;SDS011;11965;53.640;10.050;2023-03-17T10:08:52;6.14;;;6.13;;
23573;SDS011;11965;53.640;10.050;2023-03-17T10:11:29;6.52;;;6.40;;
23573;SDS011;11965;53.640;10.050;2023-03-17T10:14:07;7.15;;;7.04;;
23573;SDS011;11965;53.640;10.050;2023-03-17T10:16:56;6.21;;;6.21;;
23573;SDS011;11965;53.640;10.050;2023-03-17T10:19:29;6.46;;;6.46;;
23573;SDS011;11965;53.640;10.050;2023-03-17T10:22:04;6.11;;;6.11;;
23573;SDS011;11965;53.640;10.050;2023-03-17T10:24:45;6.00;;;6.00;;
23573;SDS011;11965;53.640;10.050;2023-03-17T10:27:18;6.48;;;6.37;;
23573;SDS011;11965;53.640;10.050;2023-03-17T10:29:45;6.06;;;5.95;;
23573;SDS011;11965;53.640;10.050;2023-03-17T10:32:14;6.23;;;6.08;;
23573;SDS011;11965;53.640;10.050;2023-03-17T10:34:41;6.08;;;5.99;;
23573;SDS011;11965;53.640;10.050;2023-03-17T10:37:12;6.15;;;6.09;;
23573;SDS011;11965;53.640;10.050;2023-03-17T10:39:43;5.81;;;5.77;;
23573;SDS011;11965;53.640;10.050;2023-03-17T10:42:15;5.59;;;5.59;;
23573;SDS011;11965;53.640;10.050;2023-03-17T10:44:49;5.64;;;5.64;;
23573;SDS011;11965;53.640;10.050;2023-03-17T10:47:27;5.60;;;5.60;;
23573;SDS011;11965;53.640;10.050;2023-03-17T10:49:57;5.06;;;5.06;;
23573;SDS011;11965;53.640;10.050;2023-03-17T10:52:30;5.21;;;5.21;;
23573;SDS011;11965;53.640;10.050;2023-03-17T10:55:04;5.57;;;5.57;;
23573;SDS011;11965;53.640;10.050;2023-03-17T10:57:34;4.91;;;4.91;;
23573;SDS011;11965;53.640;10.050;2023-03-17T11:00:05;4.77;;;4.77;;
23573;SDS011;11965;53.640;10.050;2023-03-17T11:02:46;4.87;;;4.84;;
23573;SDS011;11965;53.640;10.050;2023-03-17T11:05:21;4.56;;;4.53;;
23573;SDS011;11965;53.640;10.050;2023-03-17T11:07:55;4.68;;;4.65;;
23573;SDS011;11965;53.640;10.050;2023-03-17T11:10:24;4.62;;;4.58;;
23573;SDS011;11965;53.640;10.050;2023-03-17T11:12:54;5.22;;;5.15;;
23573;SDS011;11965;53.640;10.050;2023-03-17T11:15:27;5.10;;;5.07;;
23573;SDS011;11965;53.640;10.050;2023-03-17T11:18:00;5.03;;;5.01;;
23573;SDS011;11965;53.640;10.050;2023-03-17T11:20:33;5.00;;;4.99;;
23573;SDS011;11965;53.640;10.050;2023-03-17T11:23:12;4.93;;;4.89;;
23573;SDS011;11965;53.640;10.050;2023-03-17T11:25:54;4.56;;;4.52;;
23573;SDS011;11965;53.640;10.050;2023-03-17T11:28:36;5.04;;;4.99;;
23573;SDS011;11965;53.640;10.050;2023-03-17T11:31:09;4.80;;;4.73;;
23573;SDS011;11965;53.640;10.050;2023-03-17T11:33:51;4.82;;;4.77;;
23573;SDS011;11965;53.640;10.050;2023-03-17T11:36:34;4.75;;;4.73;;
23573;SDS011;11965;53.640;10.050;2023-03-17T11:39:11;4.55;;;4.46;;
23573;SDS011;11965;53.640;10.050;2023-03-17T11:41:55;4.61;;;4.56;;
23573;SDS011;11965;53.640;10.050;2023-03-17T11:47:39;4.75;;;4.64;;
23573;SDS011;11965;53.640;10.050;2023-03-17T11:50:24;4.65;;;4.60;;
23573;SDS011;11965;53.640;10.050;2023-03-17T11:53:11;4.74;;;4.71;;
23573;SDS011;11965;53.640;10.050;2023-03-17T11:55:58;4.66;;;4.61;;
23573;SDS011;11965;53.640;10.050;2023-03-17T11:58:31;4.37;;;4.30;;
23573;SDS011;11965;53.640;10.050;2023-03-17T12:01:03;4.47;;;4.43;;
23573;SDS011;11965;53.640;10.050;2023-03-17T12:03:35;4.58;;;4.54;;
23573;SDS011;11965;53.640;10.050;2023-03-17T12:06:13;4.68;;;4.57;;
23573;SDS011;11965;53.640;10.050;2023-03-17T12:08:47;4.66;;;4.53;;
23573;SDS011;11965;53.640;10.050;2023-03-17T12:11:21;4.49;;;4.45;;
23573;SDS011;11965;53.640;10.050;2023-03-17T12:13:54;4.38;;;4.32;;
23573;SDS011;11965;53.640;10.050;2023-03-17T12:16:27;4.54;;;4.44;;
23573;SDS011;11965;53.640;10.050;2023-03-17T12:19:02;4.30;;;4.23;;
23573;SDS011;11965;53.640;10.050;2023-03-17T12:21:42;4.34;;;4.30;;
23573;SDS011;11965;53.640;10.050;2023-03-17T12:24:15;4.05;;;3.97;;
23573;SDS011;11965;53.640;10.050;2023-03-17T12:26:49;4.06;;;4.02;;
23573;SDS011;11965;53.640;10.050;2023-03-17T12:29:24;4.06;;;4.03;;
23573;SDS011;11965;53.640;10.050;2023-03-17T12:32:09;3.76;;;3.69;;
23573;SDS011;11965;53.640;10.050;2023-03-17T12:34:45;3.54;;;3.52;;
23573;SDS011;11965;53.640;10.050;2023-03-17T12:37:18;3.44;;;3.40;;
23573;SDS011;11965;53.640;10.050;2023-03-17T12:39:48;3.70;;;3.61;;
23573;SDS011;11965;53.640;10.050;2023-03-17T12:42:35;3.56;;;3.53;;
23573;SDS011;11965;53.640;10.050;2023-03-17T12:48:12;3.61;;;3.60;;
23573;SDS011;11965;53.640;10.050;2023-03-17T12:51:08;3.34;;;3.34;;
23573;SDS011;11965;53.640;10.050;2023-03-17T12:54:09;3.38;;;3.38;;
23573;SDS011;11965;53.640;10.050;2023-03-17T12:56:42;3.62;;;3.62;;
23573;SDS011;11965;53.640;10.050;2023-03-17T12:59:15;3.72;;;3.66;;
23573;SDS011;11965;53.640;10.050;2023-03-17T13:01:51;3.41;;;3.36;;
23573;SDS011;11965;53.640;10.050;2023-03-17T13:04:23;3.59;;;3.56;;
23573;SDS011;11965;53.640;10.050;2023-03-17T13:06:53;3.41;;;3.38;;
23573;SDS011;11965;53.640;10.050;2023-03-17T13:15:48;3.40;;;3.40;;
23573;SDS011;11965;53.640;10.050;2023-03-17T13:21:16;3.56;;;3.56;;
23573;SDS011;11965;53.640;10.050;2023-03-17T13:23:52;3.61;;;3.59;;
23573;SDS011;11965;53.640;10.050;2023-03-17T13:29:24;3.42;;;3.42;;
23573;SDS011;11965;53.640;10.050;2023-03-17T13:35:17;3.42;;;3.42;;
23573;SDS011;11965;53.640;10.050;2023-03-17T13:40:45;3.76;;;3.75;;
23573;SDS011;11965;53.640;10.050;2023-03-17T13:43:37;3.56;;;3.56;;
23573;SDS011;11965;53.640;10.050;2023-03-17T13:46:29;3.75;;;3.73;;
23573;SDS011;11965;53.640;10.050;2023-03-17T13:49:18;3.90;;;3.88;;
23573;SDS011;11965;53.640;10.050;2023-03-17T13:51:50;3.86;;;3.82;;
23573;SDS011;11965;53.640;10.050;2023-03-17T13:54:28;3.82;;;3.78;;
23573;SDS011;11965;53.640;10.050;2023-03-17T13:56:58;3.75;;;3.75;;
23573;SDS011;11965;53.640;10.050;2023-03-17T13:59:54;4.02;;;4.02;;
23573;SDS011;11965;53.640;10.050;2023-03-17T14:02:41;3.44;;;3.43;;
23573;SDS011;11965;53.640;10.050;2023-03-17T14:05:16;3.84;;;3.83;;
23573;SDS011;11965;53.640;10.050;2023-03-17T14:07:49;3.76;;;3.71;;
23573;SDS011;11965;53.640;10.050;2023-03-17T14:10:21;3.74;;;3.70;;
23573;SDS011;11965;53.640;10.050;2023-03-17T14:12:54;3.93;;;3.87;;
23573;SDS011;11965;53.640;10.050;2023-03-17T14:15:27;3.45;;;3.43;;
23573;SDS011;11965;53.640;10.050;2023-03-17T14:17:59;3.65;;;3.65;;
23573;SDS011;11965;53.640;10.050;2023-03-17T14:20:35;3.35;;;3.35;;
23573;SDS011;11965;53.640;10.050;2023-03-17T14:23:02;3.52;;;3.49;;
23573;SDS011;11965;53.640;10.050;2023-03-17T14:25:32;3.54;;;3.51;;
23573;SDS011;11965;53.640;10.050;2023-03-17T14:28:05;3.52;;;3.51;;
23573;SDS011;11965;53.640;10.050;2023-03-17T14:30:38;3.45;;;3.45;;
23573;SDS011;11965;53.640;10.050;2023-03-17T14:33:05;3.64;;;3.63;;
23573;SDS011;11965;53.640;10.050;2023-03-17T14:35:48;3.17;;;3.15;;
23573;SDS011;11965;53.640;10.050;2023-03-17T14:38:18;3.50;;;3.47;;
23573;SDS011;11965;53.640;10.050;2023-03-17T14:40:47;3.48;;;3.45;;
23573;SDS011;11965;53.640;10.050;2023-03-17T14:43:17;3.63;;;3.59;;
23573;SDS011;11965;53.640;10.050;2023-03-17T14:45:46;3.34;;;3.31;;
23573;SDS011;11965;53.640;10.050;2023-03-17T14:48:16;3.38;;;3.38;;
23573;SDS011;11965;53.640;10.050;2023-03-17T14:50:52;3.28;;;3.28;;
23573;SDS011;11965;53.640;10.050;2023-03-17T14:53:21;13.70;;;13.62;;
23573;SDS011;11965;53.640;10.050;2023-03-17T14:55:50;8.32;;;8.21;;
23573;SDS011;11965;53.640;10.050;2023-03-17T14:58:21;4.27;;;4.25;;
23573;SDS011;11965;53.640;10.050;2023-03-17T15:00:53;3.76;;;3.75;;
23573;SDS011;11965;53.640;10.050;2023-03-17T15:03:23;3.28;;;3.28;;
23573;SDS011;11965;53.640;10.050;2023-03-17T15:06:03;3.16;;;3.16;;
23573;SDS011;11965;53.640;10.050;2023-03-17T15:08:39;3.24;;;3.23;;
23573;SDS011;11965;53.640;10.050;2023-03-17T15:11:15;3.30;;;3.30;;
23573;SDS011;11965;53.640;10.050;2023-03-17T15:13:46;3.37;;;3.37;;
23573;SDS011;11965;53.640;10.050;2023-03-17T15:16:17;3.05;;;3.05;;
23573;SDS011;11965;53.640;10.050;2023-03-17T15:18:48;3.16;;;3.16;;
23573;SDS011;11965;53.640;10.050;2023-03-17T15:21:28;3.08;;;3.08;;
23573;SDS011;11965;53.640;10.050;2023-03-17T15:24:02;3.29;;;3.28;;